SE Lincoln WX Station Historical Data
 
Daily Summary for July 20, 2024 Units:  English    Metric   Both
Daily Weekly Monthly Yearly
  Current: High: Low: Average:
Temperature: 65.9 °F 71.8 °F 65.9 °F 67.4 °F
Dew Point: 63.8 °F 66.2 °F 63.7 °F 64.6 °F
Humidity: 93% 93% 82.7% 91%
Wind Speed: 2.4mph 5.5mph 0.7mph 2.8mph
Wind Gust: 6mph 11mph - -
WindSE - - SE
Pressure: 30.03 in 30.05 in 30.02 in -
Precipitation: 0.25 in      
 
 
Tabular Data for July 20, 2024
Time Temperature Dew Point Pressure Wind Wind Speed Wind Gust Humidity Rainfall Rate (Hourly) solar
00:04 71.8 °F 66.2 °F 30.04 in NNW 1.3 mph 6 mph 82.7% 0.15 in 0 W/m2
00:09 70.8 °F 65.9 °F 30.05 in North 0.7 mph 4 mph 84.5% 0.19 in 0 W/m2
00:14 70.3 °F 66 °F 30.05 in NNE 1.5 mph 5 mph 86.2% 0.20 in 0 W/m2
00:19 69.8 °F 65.8 °F 30.04 in ENE 2.5 mph 6 mph 87.3% 0.22 in 0 W/m2
00:24 69.2 °F 65.5 °F 30.03 in SSE 4.1 mph 9 mph 88% 0.24 in 0 W/m2
00:29 68.7 °F 65.2 °F 30.03 in SE 5.5 mph 10 mph 88.5% 0.26 in 0 W/m2
00:34 68.5 °F 65.1 °F 30.02 in SE 4 mph 8 mph 89% 0.27 in 0 W/m2
00:39 68.3 °F 65.1 °F 30.02 in East 3 mph 7 mph 89.6% 0.28 in 0 W/m2
00:44 68.1 °F 65 °F 30.02 in East 3.6 mph 8 mph 90% 0.29 in 0 W/m2
00:49 67.9 °F 64.9 °F 30.02 in East 3.4 mph 8 mph 90% 0.29 in 0 W/m2
00:54 67.9 °F 65 °F 30.02 in East 4.6 mph 8 mph 90.5% 0.30 in 0 W/m2
00:59 67.8 °F 65.1 °F 30.02 in East 4.4 mph 8 mph 91% 0.27 in 0 W/m2
01:04 67.7 °F 65 °F 30.02 in ESE 4.5 mph 11 mph 91% 0.23 in 0 W/m2
01:09 67.6 °F 64.9 °F 30.02 in ESE 4.3 mph 8 mph 91% 0.15 in 0 W/m2
01:14 67.5 °F 64.8 °F 30.03 in ESE 3.3 mph 7 mph 91% 0.12 in 0 W/m2
01:19 67.5 °F 64.7 °F 30.02 in SE 2.1 mph 8 mph 91% 0.10 in 0 W/m2
01:24 67.3 °F 64.6 °F 30.03 in SE 2.2 mph 6 mph 91% 0.08 in 0 W/m2
01:29 67.3 °F 64.6 °F 30.03 in SE 0.8 mph 6 mph 91% 0.06 in 0 W/m2
01:34 67.3 °F 64.8 °F 30.03 in ESE 1.1 mph 5 mph 91.7% 0.06 in 0 W/m2
01:39 67.3 °F 64.9 °F 30.04 in SSE 2.4 mph 6 mph 92% 0.04 in 0 W/m2
01:44 67.3 °F 64.9 °F 30.04 in SE 1.1 mph 6 mph 92% 0.03 in 0 W/m2
01:49 67.3 °F 64.9 °F 30.04 in SE 2.9 mph 6 mph 92% 0.03 in 0 W/m2
01:54 67.2 °F 64.8 °F 30.04 in SSE 2.3 mph 7 mph 92% 0.03 in 0 W/m2
01:59 67.1 °F 64.7 °F 30.04 in SE 1.9 mph 7 mph 92% 0.02 in 0 W/m2
02:04 67 °F 64.6 °F 30.04 in SSE 1.7 mph 5 mph 92% 0.02 in 0 W/m2
02:09 67 °F 64.6 °F 30.04 in SE 2.8 mph 9 mph 92% 0.02 in 0 W/m2
02:14 66.9 °F 64.5 °F 30.04 in SE 2.9 mph 7 mph 92% 0.02 in 0 W/m2
02:19 66.8 °F 64.4 °F 30.04 in ESE 3.4 mph 7 mph 92% 0.02 in 0 W/m2
02:24 66.7 °F 64.3 °F 30.04 in ESE 2.9 mph 7 mph 92% 0.02 in 0 W/m2
02:29 66.6 °F 64.2 °F 30.04 in ESE 2.9 mph 7 mph 92% 0.02 in 0 W/m2
02:34 66.5 °F 64.1 °F 30.04 in ESE 3.1 mph 8 mph 92% 0.02 in 0 W/m2
02:39 66.4 °F 64 °F 30.04 in SE 3.3 mph 7 mph 92% 0.02 in 0 W/m2
02:44 66.4 °F 64 °F 30.04 in ESE 2.1 mph 6 mph 92% 0.02 in 0 W/m2
02:49 66.3 °F 63.9 °F 30.04 in ESE 2.5 mph 7 mph 92% 0.02 in 0 W/m2
02:54 66.2 °F 63.8 °F 30.04 in East 2.8 mph 7 mph 92% 0.02 in 0 W/m2
02:59 66.1 °F 63.8 °F 30.04 in East 2.5 mph 7 mph 92% 0.02 in 0 W/m2
03:04 66.1 °F 63.7 °F 30.04 in ESE 2.6 mph 6 mph 92% 0.02 in 0 W/m2
03:07 66 °F 63.7 °F 30.04 in SE 2.3 mph 5 mph 92.3% 0.02 in 0 W/m2
03:14 66 °F 63.9 °F 30.04 in SE 3.4 mph 7 mph 93% 0.02 in 0 W/m2
03:19 65.9 °F 63.9 °F 30.03 in SE 2.6 mph 7 mph 93% 0.02 in 0 W/m2
03:24 66 °F 63.9 °F 30.03 in SE 3.6 mph 7 mph 93% 0.02 in 0 W/m2
03:29 65.9 °F 63.8 °F 30.03 in ESE 4.2 mph 11 mph 93% 0.02 in 0 W/m2
03:32 65.9 °F 63.8 °F 30.03 in SE 2.4 mph 6 mph 93% 0.02 in 0 W/m2
66th and South
Compliments of Weather Underground - 6.7 mb